aviador You're here:

CYWE Decoded Metar

in
Report Time2017-09-24 12:00:00
UTC Time2017-09-24 12:12:39
Flight Rules vfr VFR
WindVRB at 02 kt
Visibility9999 m
Phenomena:N/A
Clouds:Few 005 Hf
Overcast 042 Hf
Ceiling4,200 ft
Temp02°C
Dew Point02°C (100% RH)
AAT-0.4°C
QNH1016 hPa
Raw Report
METAR CYWE 241200Z AUTO VRB02KT 9SM FEW005 OVC042 02/02 A2999 RMK
SLP179=

Extra information for CYWE:More info

Social comments